Time;durP1;ratioP1;P1;durP2;ratioP2;P2;SDS_P1;SDS_P2;PMS_P1;PMS_P2;Temp;Humidity;BMP_temperature;BMP_pressure;BME280_temperature;BME280_humidity;BME280_pressure;Samples;Min_cycle;Max_cycle;Signal;HPM_P1;HPM_P2
2021/10/31 00:01:19;;;;;;;4.72;2.45;;;12.30;99.90;;;;;;5029957;28;20212;-70
2021/10/31 00:03:46;;;;;;;2.55;2.25;;;12.30;99.90;;;;;;5030503;28;20570;-70
2021/10/31 00:06:14;;;;;;;2.63;2.03;;;12.30;99.90;;;;;;5029700;28;20316;-70
2021/10/31 00:08:41;;;;;;;2.03;1.88;;;12.30;99.90;;;;;;5060087;22;20233;-71
2021/10/31 00:11:08;;;;;;;2.33;2.13;;;12.30;99.90;;;;;;5051650;28;20204;-71
2021/10/31 00:13:35;;;;;;;2.75;2.20;;;12.20;99.90;;;;;;5051847;28;20227;-71
2021/10/31 00:16:03;;;;;;;2.60;2.40;;;12.20;99.90;;;;;;5050087;28;20217;-72
2021/10/31 00:18:30;;;;;;;2.05;1.85;;;12.20;99.90;;;;;;5051404;28;20208;-72
2021/10/31 00:20:57;;;;;;;2.30;2.10;;;12.20;99.90;;;;;;5051296;28;20201;-73
2021/10/31 00:23:26;;;;;;;3.00;2.13;;;12.20;99.90;;;;;;5051385;28;20243;-74
2021/10/31 00:25:53;;;;;;;2.53;2.33;;;12.10;99.90;;;;;;5050757;28;20224;-74
2021/10/31 00:28:20;;;;;;;2.42;2.15;;;12.10;99.90;;;;;;5051285;28;20221;-74
2021/10/31 00:30:47;;;;;;;2.63;2.30;;;12.10;99.90;;;;;;5050455;28;20197;-74
2021/10/31 00:33:13;;;;;;;2.40;2.20;;;12.10;99.90;;;;;;5051389;28;20201;-74
2021/10/31 00:35:41;;;;;;;2.38;2.17;;;12.00;99.90;;;;;;5050704;28;20232;-74
2021/10/31 00:38:08;;;;;;;2.85;2.55;;;12.00;99.90;;;;;;5051252;28;20201;-74
2021/10/31 00:40:36;;;;;;;2.90;2.20;;;12.00;99.90;;;;;;5051083;28;20209;-74
2021/10/31 00:43:03;;;;;;;3.00;2.20;;;12.00;99.90;;;;;;5051251;28;20227;-74
2021/10/31 00:45:30;;;;;;;2.75;2.17;;;12.00;99.90;;;;;;5050720;28;20228;-72
2021/10/31 00:47:56;;;;;;;3.00;2.00;;;12.00;99.90;;;;;;5050453;28;20209;-72
2021/10/31 00:50:24;;;;;;;3.10;2.40;;;12.00;99.90;;;;;;5050786;28;20205;-72
2021/10/31 00:52:51;;;;;;;2.47;2.10;;;12.00;99.90;;;;;;5050785;28;20201;-72
2021/10/31 00:55:18;;;;;;;2.30;2.10;;;11.90;99.90;;;;;;5050582;28;20668;-72
2021/10/31 00:57:46;;;;;;;2.22;2.03;;;11.90;99.90;;;;;;5049349;28;20205;-72
2021/10/31 01:00:14;;;;;;;2.25;2.05;;;11.90;99.90;;;;;;5048180;28;20208;-72
2021/10/31 01:02:41;;;;;;;2.55;1.98;;;11.80;99.90;;;;;;5048869;28;20208;-71
2021/10/31 01:05:12;;;;;;;2.40;2.20;;;11.90;99.90;;;;;;5050268;28;20582;-71
2021/10/31 01:07:53;;;;;;;4.07;2.45;;;11.80;99.90;;;;;;5050222;28;20232;-72
2021/10/31 01:10:29;;;;;;;3.03;2.17;;;11.80;99.90;;;;;;5050524;28;20230;-72
2021/10/31 01:13:12;;;;;;;2.10;1.80;;;11.80;99.90;;;;;;5050709;28;20205;-72
2021/10/31 01:15:49;;;;;;;2.78;2.58;;;11.70;99.90;;;;;;5050404;28;20294;-72
2021/10/31 01:19:00;;;;;;;2.65;2.25;;;11.60;99.90;;;;;;5050365;28;20208;-72
2021/10/31 01:21:35;;;;;;;2.63;2.20;;;11.50;99.90;;;;;;5050451;28;20209;-72
2021/10/31 01:24:29;;;;;;;2.65;2.30;;;11.50;99.90;;;;;;5051071;28;20204;-71
2021/10/31 01:27:07;;;;;;;3.53;2.72;;;11.40;99.90;;;;;;5050111;28;20232;-72
2021/10/31 01:29:52;;;;;;;2.80;2.60;;;11.40;99.90;;;;;;5050377;28;20217;-72
2021/10/31 01:32:32;;;;;;;3.10;2.85;;;11.30;99.90;;;;;;5050265;28;20664;-72
2021/10/31 01:35:06;;;;;;;5.05;2.05;;;11.30;99.90;;;;;;5050311;28;20668;-72
2021/10/31 01:37:46;;;;;;;3.05;2.35;;;11.30;99.90;;;;;;5049630;28;20207;-72
2021/10/31 01:40:21;;;;;;;5.35;2.17;;;11.30;99.90;;;;;;5050265;28;20231;-72
2021/10/31 01:43:01;;;;;;;2.33;2.13;;;11.30;99.90;;;;;;5052465;28;20227;-72
2021/10/31 01:45:43;;;;;;;2.60;2.20;;;11.30;99.90;;;;;;5054029;28;20232;-72
2021/10/31 01:48:19;;;;;;;3.00;2.42;;;11.30;99.90;;;;;;5053909;28;20226;-72
2021/10/31 01:50:49;;;;;;;2.47;2.25;;;11.30;99.90;;;;;;5054291;28;20204;-72
2021/10/31 01:53:20;;;;;;;2.63;2.13;;;11.30;99.90;;;;;;5053806;28;20616;-72
2021/10/31 01:55:51;;;;;;;2.75;2.05;;;11.30;99.90;;;;;;5053608;28;20588;-72
2021/10/31 01:58:21;;;;;;;2.42;2.00;;;11.30;99.90;;;;;;5053873;28;20204;-71
2021/10/31 02:00:51;;;;;;;3.13;2.50;;;11.30;99.90;;;;;;5054186;28;20209;-71
2021/10/31 02:03:18;;;;;;;2.65;2.35;;;11.20;99.90;;;;;;5053847;28;20205;-71
2021/10/31 02:05:47;;;;;;;2.90;2.47;;;11.20;99.90;;;;;;5053199;28;20225;-71
2021/10/31 02:08:18;;;;;;;2.60;2.40;;;11.20;99.90;;;;;;5053808;28;20627;-71
2021/10/31 02:10:48;;;;;;;3.08;2.38;;;11.20;99.90;;;;;;5053835;28;20197;-72
2021/10/31 02:13:16;;;;;;;2.60;2.40;;;11.10;99.90;;;;;;5053645;28;20197;-71
2021/10/31 02:15:47;;;;;;;2.47;2.28;;;11.10;99.90;;;;;;5053190;28;20227;-71
2021/10/31 02:18:19;;;;;;;3.63;3.00;;;11.10;99.90;;;;;;5053598;28;20563;-72
2021/10/31 02:20:50;;;;;;;3.40;2.50;;;11.10;99.90;;;;;;5053485;28;20197;-71
2021/10/31 02:23:18;;;;;;;2.88;2.53;;;11.10;99.90;;;;;;5053365;28;20801;-72
2021/10/31 02:25:46;;;;;;;3.20;2.40;;;11.10;99.90;;;;;;5052980;28;20231;-72
2021/10/31 02:28:13;;;;;;;3.15;2.45;;;11.00;99.90;;;;;;5053198;28;20584;-72
2021/10/31 02:30:40;;;;;;;3.05;2.50;;;11.00;99.90;;;;;;5053278;28;20221;-71
2021/10/31 02:33:07;;;;;;;2.78;2.17;;;10.90;99.90;;;;;;5053315;28;20208;-72
2021/10/31 02:35:34;;;;;;;3.13;2.50;;;10.80;99.90;;;;;;5053600;28;20221;-71
2021/10/31 02:38:01;;;;;;;3.88;2.42;;;10.70;99.90;;;;;;5052940;28;20209;-72
2021/10/31 02:40:31;;;;;;;2.30;2.10;;;10.60;99.90;;;;;;5053123;28;20668;-72
2021/10/31 02:42:58;;;;;;;3.67;2.30;;;10.50;99.90;;;;;;5053171;28;20205;-72
2021/10/31 02:45:25;;;;;;;2.10;1.90;;;10.50;99.90;;;;;;5052722;28;20229;-72
2021/10/31 02:47:55;;;;;;;2.28;2.08;;;10.40;99.90;;;;;;5052677;28;20208;-72
2021/10/31 02:50:24;;;;;;;3.97;2.33;;;10.30;99.90;;;;;;5052987;28;20619;-72
2021/10/31 02:53:08;;;;;;;5.40;2.50;;;10.10;99.90;;;;;;5053215;28;20590;-72
2021/10/31 02:55:43;;;;;;;3.35;2.35;;;10.10;99.90;;;;;;5052220;28;20296;-72
2021/10/31 02:58:17;;;;;;;2.20;2.00;;;10.00;99.90;;;;;;5053201;28;20211;-72
2021/10/31 03:00:44;;;;;;;4.22;2.72;;;10.00;99.90;;;;;;5053674;28;20201;-72
2021/10/31 03:03:13;;;;;;;4.50;2.33;;;10.00;99.90;;;;;;5052799;28;20204;-71
2021/10/31 03:05:40;;;;;;;2.17;1.98;;;9.90;99.90;;;;;;5052486;28;20668;-72
2021/10/31 03:08:07;;;;;;;2.38;2.17;;;9.90;99.90;;;;;;5052417;28;20223;-74
2021/10/31 03:10:34;;;;;;;2.75;2.17;;;9.90;99.90;;;;;;5052540;28;20588;-74
2021/10/31 03:13:02;;;;;;;3.20;2.75;;;9.90;99.90;;;;;;5052728;28;20296;-74
2021/10/31 03:15:28;;;;;;;4.97;2.55;;;9.80;99.90;;;;;;5052274;28;20229;-74
2021/10/31 03:17:55;;;;;;;3.63;2.72;;;9.80;99.90;;;;;;5052165;28;20197;-74
2021/10/31 03:20:22;;;;;;;2.80;2.60;;;9.80;99.90;;;;;;5052315;28;20201;-74
2021/10/31 03:22:49;;;;;;;1.98;1.88;;;9.70;99.90;;;;;;5052449;28;20209;-74
2021/10/31 03:25:15;;;;;;;4.95;2.22;;;9.70;99.90;;;;;;5052098;28;20224;-74
2021/10/31 03:27:42;;;;;;;2.35;2.05;;;9.70;99.90;;;;;;5051520;28;20208;-74
2021/10/31 03:30:10;;;;;;;3.67;2.10;;;9.70;99.90;;;;;;5051860;28;20227;-74
2021/10/31 03:32:37;;;;;;;9.57;2.70;;;9.60;99.90;;;;;;5052310;28;20205;-74
2021/10/31 03:35:05;;;;;;;5.88;2.33;;;9.60;99.90;;;;;;5051626;28;20201;-74
2021/10/31 03:37:31;;;;;;;3.05;2.58;;;9.50;99.90;;;;;;5051236;28;20208;-72
2021/10/31 03:39:58;;;;;;;2.75;2.20;;;9.50;99.90;;;;;;5051876;28;20201;-72
2021/10/31 03:42:26;;;;;;;3.00;2.60;;;9.50;99.90;;;;;;5051594;28;20201;-71
2021/10/31 03:44:53;;;;;;;2.03;1.80;;;9.40;99.90;;;;;;5051735;28;20197;-72
2021/10/31 03:47:23;;;;;;;2.60;2.08;;;9.40;99.90;;;;;;5050926;28;20709;-71
2021/10/31 03:49:50;;;;;;;5.90;2.13;;;9.40;99.90;;;;;;5051495;28;20221;-71
2021/10/31 03:52:17;;;;;;;2.53;2.30;;;9.30;99.90;;;;;;5051679;28;20216;-72
2021/10/31 03:54:43;;;;;;;2.15;2.00;;;9.30;99.90;;;;;;5051558;28;20551;-72
2021/10/31 03:57:10;;;;;;;4.93;2.55;;;9.20;99.90;;;;;;5050981;28;20240;-71
2021/10/31 03:59:37;;;;;;;4.07;2.45;;;9.20;99.90;;;;;;5051523;28;20205;-71
2021/10/31 04:02:05;;;;;;;3.58;2.60;;;9.10;99.90;;;;;;5051497;28;20212;-71
2021/10/31 04:04:34;;;;;;;2.85;2.40;;;9.10;99.90;;;;;;5051006;28;20212;-72
2021/10/31 04:07:01;;;;;;;2.50;2.20;;;9.10;99.90;;;;;;5050575;28;20735;-71
2021/10/31 04:09:28;;;;;;;3.00;2.25;;;9.10;99.90;;;;;;5051250;28;20248;-71
2021/10/31 04:11:55;;;;;;;2.95;2.15;;;9.00;99.90;;;;;;5051308;28;20198;-71
2021/10/31 04:14:22;;;;;;;2.30;2.10;;;9.00;99.90;;;;;;5051104;28;20209;-71
2021/10/31 04:16:49;;;;;;;9.52;4.13;;;8.90;99.90;;;;;;5050890;28;20217;-71
2021/10/31 04:19:16;;;;;;;2.65;2.17;;;8.80;99.90;;;;;;5050961;28;20287;-71
2021/10/31 04:21:44;;;;;;;3.08;2.47;;;8.80;99.90;;;;;;5051437;28;20201;-72
2021/10/31 04:24:11;;;;;;;6.60;2.60;;;8.70;99.90;;;;;;5050928;28;20208;-72
2021/10/31 04:26:38;;;;;;;3.10;1.88;;;8.70;99.90;;;;;;5050641;28;20596;-71
2021/10/31 04:29:04;;;;;;;2.92;2.05;;;8.70;99.90;;;;;;5051038;28;20208;-71
2021/10/31 04:31:31;;;;;;;3.97;2.15;;;8.60;99.90;;;;;;5051165;28;20201;-71
2021/10/31 04:33:58;;;;;;;3.13;2.30;;;8.60;99.90;;;;;;5051642;28;20213;-71
2021/10/31 04:36:25;;;;;;;6.30;2.10;;;8.60;99.90;;;;;;5050517;28;20225;-72
2021/10/31 04:38:55;;;;;;;2.85;2.38;;;8.60;99.90;;;;;;5051261;28;20247;-74
2021/10/31 04:41:23;;;;;;;2.50;2.13;;;8.60;99.90;;;;;;5050633;28;20201;-74
2021/10/31 04:43:50;;;;;;;7.00;2.20;;;8.60;99.90;;;;;;5051025;28;20235;-74
2021/10/31 04:46:17;;;;;;;2.60;2.30;;;8.50;99.90;;;;;;5050103;28;20225;-74
2021/10/31 04:48:43;;;;;;;3.05;2.40;;;8.50;99.90;;;;;;5051230;28;20201;-74
2021/10/31 04:51:10;;;;;;;2.30;2.08;;;8.50;99.90;;;;;;5051019;28;20221;-71
2021/10/31 04:53:37;;;;;;;2.55;2.35;;;8.50;99.90;;;;;;5051750;28;20683;-71
2021/10/31 04:56:06;;;;;;;3.50;2.40;;;8.50;99.90;;;;;;5051592;28;20704;-71
2021/10/31 04:58:32;;;;;;;5.82;2.47;;;8.50;99.90;;;;;;5051627;28;20218;-72
2021/10/31 05:00:59;;;;;;;2.83;2.30;;;8.40;99.90;;;;;;5051412;28;20201;-72
2021/10/31 05:03:27;;;;;;;2.85;2.47;;;8.40;99.90;;;;;;5050508;28;20212;-72
2021/10/31 05:05:54;;;;;;;3.05;2.45;;;8.40;99.90;;;;;;5050378;28;20266;-72
2021/10/31 05:08:21;;;;;;;4.10;2.45;;;8.40;99.90;;;;;;5050567;28;20217;-72
2021/10/31 05:10:48;;;;;;;3.80;2.85;;;8.40;99.90;;;;;;5050846;28;20221;-72
2021/10/31 05:13:16;;;;;;;3.20;2.30;;;8.40;99.90;;;;;;5050517;28;20567;-71
2021/10/31 05:15:42;;;;;;;2.72;2.50;;;8.30;99.90;;;;;;5050439;28;20227;-72
2021/10/31 05:18:09;;;;;;;2.88;2.10;;;8.30;99.90;;;;;;5049818;28;20203;-71
2021/10/31 05:20:36;;;;;;;2.35;2.15;;;8.40;99.90;;;;;;5050531;28;20209;-71
2021/10/31 05:23:03;;;;;;;4.28;2.78;;;8.40;99.90;;;;;;5050557;28;20672;-72
2021/10/31 05:25:30;;;;;;;2.55;2.00;;;8.40;99.90;;;;;;5050118;28;20224;-71
2021/10/31 05:27:56;;;;;;;2.97;2.65;;;8.30;99.90;;;;;;5050390;28;20202;-71
2021/10/31 05:30:24;;;;;;;2.55;2.20;;;8.30;99.90;;;;;;5050284;28;20240;-72
2021/10/31 05:32:52;;;;;;;3.38;3.08;;;8.30;99.90;;;;;;5050621;28;20204;-72
2021/10/31 05:35:19;;;;;;;3.05;2.85;;;8.20;99.90;;;;;;5050253;28;20213;-72
2021/10/31 05:37:47;;;;;;;2.30;2.10;;;8.20;99.90;;;;;;5050030;28;20200;-71
2021/10/31 05:40:16;;;;;;;3.75;2.75;;;8.20;99.90;;;;;;5050269;28;20233;-72
2021/10/31 05:42:43;;;;;;;3.50;2.92;;;8.20;99.90;;;;;;5050552;28;20220;-71
2021/10/31 05:45:11;;;;;;;2.70;2.50;;;8.10;99.90;;;;;;5049930;28;20672;-71
2021/10/31 05:47:41;;;;;;;3.42;3.13;;;8.10;99.90;;;;;;5049594;28;20661;-71
2021/10/31 05:50:10;;;;;;;4.97;2.50;;;8.10;99.90;;;;;;5050233;28;20220;-71
2021/10/31 05:52:37;;;;;;;4.45;2.60;;;8.10;99.90;;;;;;5050295;28;20209;-71
2021/10/31 05:55:06;;;;;;;2.63;2.40;;;8.10;99.90;;;;;;5050104;28;20197;-71
2021/10/31 05:57:33;;;;;;;3.10;2.80;;;8.00;99.90;;;;;;5049485;28;20205;-71
2021/10/31 06:00:02;;;;;;;4.82;3.28;;;8.10;99.90;;;;;;5050211;28;20208;-72
2021/10/31 06:02:29;;;;;;;3.55;2.67;;;8.10;99.90;;;;;;5050032;28;20259;-71
2021/10/31 06:04:58;;;;;;;2.80;2.60;;;8.10;99.90;;;;;;5050049;28;20205;-71
2021/10/31 06:07:26;;;;;;;3.42;3.10;;;8.10;99.90;;;;;;5049287;28;20351;-72
2021/10/31 06:09:52;;;;;;;6.75;3.42;;;8.10;99.90;;;;;;5045567;22;20237;-70
2021/10/31 06:12:19;;;;;;;2.90;2.70;;;8.10;99.90;;;;;;5029753;28;20708;-70
2021/10/31 06:14:46;;;;;;;3.13;2.80;;;8.10;99.90;;;;;;5029596;28;20202;-71
2021/10/31 06:17:13;;;;;;;6.15;2.78;;;8.10;99.90;;;;;;5029554;28;20233;-70
2021/10/31 06:19:40;;;;;;;4.18;3.60;;;8.10;99.90;;;;;;5030423;28;20202;-70
2021/10/31 06:22:08;;;;;;;3.47;3.17;;;8.10;99.90;;;;;;5030075;28;20700;-70
2021/10/31 06:24:35;;;;;;;4.18;2.83;;;8.10;99.90;;;;;;5030167;28;20217;-70
2021/10/31 06:27:02;;;;;;;3.40;3.10;;;8.10;99.90;;;;;;5029207;28;20234;-70
2021/10/31 06:29:28;;;;;;;3.20;2.90;;;8.10;99.90;;;;;;5031495;28;20209;-70
2021/10/31 06:31:55;;;;;;;3.35;3.05;;;8.10;99.90;;;;;;5033510;28;20230;-70
2021/10/31 06:34:22;;;;;;;3.35;3.05;;;8.20;99.90;;;;;;5033754;28;20206;-70
2021/10/31 06:36:49;;;;;;;3.47;2.80;;;8.20;99.90;;;;;;5032848;28;20230;-70
2021/10/31 06:39:17;;;;;;;3.90;2.78;;;8.30;99.90;;;;;;5033695;28;20209;-70
2021/10/31 06:41:43;;;;;;;3.13;2.83;;;8.30;99.90;;;;;;5033343;28;20665;-70
2021/10/31 06:44:10;;;;;;;3.50;3.20;;;8.30;99.90;;;;;;5033336;28;20205;-70
2021/10/31 06:46:37;;;;;;;3.45;2.67;;;8.30;99.90;;;;;;5032824;28;20225;-70
2021/10/31 06:49:05;;;;;;;6.53;3.38;;;8.40;99.90;;;;;;5032988;28;20206;-70
2021/10/31 06:51:32;;;;;;;4.57;3.30;;;8.40;99.90;;;;;;5033264;28;20225;-70
2021/10/31 06:53:59;;;;;;;3.30;3.00;;;8.40;99.90;;;;;;5032851;28;20670;-70
2021/10/31 06:56:27;;;;;;;7.72;3.15;;;8.50;99.90;;;;;;5032546;28;20735;-70
2021/10/31 06:58:54;;;;;;;3.58;2.90;;;8.50;99.90;;;;;;5033013;28;20349;-70
2021/10/31 07:01:22;;;;;;;5.70;3.15;;;8.50;99.90;;;;;;5033148;28;20205;-70
2021/10/31 07:03:48;;;;;;;4.43;3.17;;;8.70;99.90;;;;;;5033023;28;20704;-70
2021/10/31 07:06:16;;;;;;;3.67;3.33;;;8.70;99.90;;;;;;5032640;28;20225;-70
2021/10/31 07:08:44;;;;;;;3.25;2.95;;;8.70;99.90;;;;;;5032751;28;20210;-70
2021/10/31 07:11:11;;;;;;;3.38;3.08;;;8.80;99.90;;;;;;5032854;28;20231;-70
2021/10/31 07:13:40;;;;;;;6.65;4.15;;;8.90;99.90;;;;;;5032923;28;20209;-70
2021/10/31 07:16:08;;;;;;;4.50;3.30;;;9.00;99.90;;;;;;5032044;28;20218;-69
2021/10/31 07:18:35;;;;;;;3.40;3.10;;;9.10;99.90;;;;;;5029950;28;20231;-69
2021/10/31 07:21:02;;;;;;;3.42;3.13;;;9.30;99.90;;;;;;5019137;28;20210;-70
2021/10/31 07:23:29;;;;;;;3.78;3.38;;;9.70;99.90;;;;;;5012832;28;20202;-69
2021/10/31 07:25:55;;;;;;;3.88;3.42;;;10.00;99.90;;;;;;5012127;28;20746;-69
2021/10/31 07:28:22;;;;;;;3.67;2.85;;;10.30;99.90;;;;;;5012991;28;20207;-70
2021/10/31 07:30:51;;;;;;;3.22;2.92;;;10.60;99.90;;;;;;5012752;28;20254;-70
2021/10/31 07:33:18;;;;;;;4.38;3.00;;;10.80;99.90;;;;;;5012930;28;20238;-70
2021/10/31 07:35:45;;;;;;;2.80;2.60;;;11.10;99.90;;;;;;5012251;28;20653;-70
2021/10/31 07:38:12;;;;;;;3.85;2.67;;;11.20;99.90;;;;;;5012677;28;20666;-70
2021/10/31 07:40:39;;;;;;;3.13;2.83;;;11.30;99.90;;;;;;5012259;28;20229;-70
2021/10/31 07:43:06;;;;;;;3.38;3.08;;;11.40;99.90;;;;;;5012233;28;20202;-70
2021/10/31 07:45:33;;;;;;;4.35;3.00;;;11.70;99.90;;;;;;5012721;28;20226;-70
2021/10/31 07:48:03;;;;;;;4.35;3.95;;;12.00;99.90;;;;;;5011905;28;20613;-70
2021/10/31 07:50:34;;;;;;;4.40;3.55;;;12.30;99.90;;;;;;5012607;28;20620;-70
2021/10/31 07:53:01;;;;;;;3.97;3.58;;;12.70;99.90;;;;;;5012308;28;20686;-70
2021/10/31 07:55:31;;;;;;;4.65;4.25;;;13.10;99.90;;;;;;5012358;28;20225;-70
2021/10/31 07:57:58;;;;;;;5.13;4.63;;;13.50;99.90;;;;;;5011462;28;20211;-70
2021/10/31 08:00:26;;;;;;;8.10;4.40;;;13.70;99.90;;;;;;5012455;28;20468;-70
2021/10/31 08:02:53;;;;;;;5.67;5.13;;;13.90;99.90;;;;;;5012113;28;20523;-69
2021/10/31 08:05:22;;;;;;;5.43;4.67;;;13.90;99.90;;;;;;5011512;28;20949;-70
2021/10/31 08:07:49;;;;;;;7.93;5.03;;;13.80;99.90;;;;;;5011399;28;20465;-70
2021/10/31 08:10:16;;;;;;;6.53;5.77;;;13.60;99.90;;;;;;5011977;28;20461;-69
2021/10/31 08:12:43;;;;;;;6.30;5.70;;;13.40;99.90;;;;;;5011869;28;20488;-68
2021/10/31 08:15:10;;;;;;;7.70;4.97;;;13.20;99.90;;;;;;5011624;28;20843;-69
2021/10/31 08:17:38;;;;;;;5.77;5.13;;;13.10;99.90;;;;;;5011612;28;20972;-69
2021/10/31 08:20:06;;;;;;;4.80;4.40;;;13.10;99.90;;;;;;5011690;28;20468;-69
2021/10/31 08:22:34;;;;;;;5.23;4.73;;;13.20;99.90;;;;;;5012168;28;20457;-69
2021/10/31 08:25:01;;;;;;;4.80;4.05;;;13.30;99.90;;;;;;5011674;28;20465;-69
2021/10/31 08:27:28;;;;;;;5.57;4.27;;;13.70;99.90;;;;;;5011226;28;20656;-69
2021/10/31 08:29:55;;;;;;;4.40;3.70;;;14.20;99.90;;;;;;5011469;28;20948;-69
2021/10/31 08:32:24;;;;;;;4.10;3.80;;;14.70;99.90;;;;;;5022320;28;20491;-69
2021/10/31 08:34:51;;;;;;;5.93;4.60;;;15.20;99.90;;;;;;5031001;28;20515;-69
2021/10/31 08:37:18;;;;;;;7.67;5.00;;;15.50;99.90;;;;;;5030663;28;20488;-69
2021/10/31 08:39:46;;;;;;;5.43;4.70;;;16.00;99.90;;;;;;5031225;28;20464;-69
2021/10/31 08:42:14;;;;;;;5.80;4.83;;;16.20;99.90;;;;;;5031238;28;20460;-69
2021/10/31 08:44:41;;;;;;;4.93;3.90;;;16.40;99.90;;;;;;5031371;28;20468;-69
2021/10/31 08:47:08;;;;;;;8.50;5.00;;;16.70;99.90;;;;;;5030468;28;20751;-69
2021/10/31 08:49:34;;;;;;;7.90;5.00;;;17.00;99.90;;;;;;5031014;28;20473;-69
2021/10/31 08:52:05;;;;;;;4.37;3.97;;;17.20;99.90;;;;;;5030088;28;20496;-70
2021/10/31 08:54:32;;;;;;;4.60;4.20;;;17.10;99.90;;;;;;5030993;28;20869;-69
2021/10/31 08:57:00;;;;;;;5.10;3.90;;;17.20;99.90;;;;;;5029821;28;20567;-69
2021/10/31 08:59:27;;;;;;;4.50;3.73;;;17.30;99.90;;;;;;5030149;28;20831;-70
2021/10/31 09:01:54;;;;;;;5.17;4.67;;;17.40;99.90;;;;;;5030694;28;20448;-69
2021/10/31 09:04:20;;;;;;;5.23;4.23;;;17.40;99.90;;;;;;5030231;28;20976;-69
2021/10/31 09:06:47;;;;;;;4.80;4.10;;;17.40;99.90;;;;;;5030210;28;21104;-70
2021/10/31 09:09:14;;;;;;;4.90;4.40;;;17.60;99.90;;;;;;5028335;28;20468;-71
2021/10/31 09:11:41;;;;;;;4.33;3.93;;;17.80;99.90;;;;;;5026257;28;20479;-69
2021/10/31 09:14:09;;;;;;;5.53;4.47;;;18.10;99.90;;;;;;5029425;28;20471;-68
2021/10/31 09:16:35;;;;;;;4.93;4.53;;;18.40;99.90;;;;;;5029252;28;20480;-69
2021/10/31 09:19:02;;;;;;;5.30;4.80;;;18.60;99.90;;;;;;5029553;28;21172;-69
2021/10/31 09:21:29;;;;;;;7.93;5.20;;;18.80;99.90;;;;;;5029514;28;20964;-69
2021/10/31 09:23:56;;;;;;;6.63;5.70;;;18.90;99.90;;;;;;5029820;28;20892;-68
2021/10/31 09:26:23;;;;;;;6.67;6.07;;;19.10;99.90;;;;;;5029184;28;20483;-68
2021/10/31 09:28:50;;;;;;;7.17;6.00;;;19.20;99.90;;;;;;5029818;28;20551;-68
2021/10/31 09:31:18;;;;;;;5.00;4.60;;;19.40;99.90;;;;;;5030353;28;20863;-68
2021/10/31 09:33:47;;;;;;;5.37;4.87;;;19.60;99.90;;;;;;5029949;28;20940;-68
2021/10/31 09:36:14;;;;;;;5.70;5.20;;;19.70;99.90;;;;;;5029489;28;20476;-68
2021/10/31 09:38:41;;;;;;;5.73;5.07;;;19.90;99.90;;;;;;5029556;28;21003;-69
2021/10/31 09:41:08;;;;;;;6.63;5.30;;;20.10;99.90;;;;;;5029817;28;20460;-69
2021/10/31 09:43:44;;;;;;;5.83;4.57;;;20.30;99.90;;;;;;5029679;28;20455;-68
2021/10/31 09:46:11;;;;;;;5.87;4.70;;;20.50;99.90;;;;;;5029116;28;20480;-69
2021/10/31 09:48:39;;;;;;;4.80;4.30;;;20.80;99.90;;;;;;5029893;28;20464;-68
2021/10/31 09:51:06;;;;;;;5.50;4.70;;;21.00;99.90;;;;;;5030756;28;20570;-68
2021/10/31 09:53:33;;;;;;;6.70;4.80;;;21.30;99.90;;;;;;5033826;28;20536;-69
2021/10/31 09:56:00;;;;;;;4.53;4.13;;;21.50;99.90;;;;;;5033050;28;20686;-69
2021/10/31 09:58:33;;;;;;;4.67;4.27;;;21.80;99.90;;;;;;5033061;28;20456;-69
2021/10/31 10:01:05;;;;;;;4.40;4.00;;;22.10;99.90;;;;;;5031686;28;20551;-68
2021/10/31 10:03:36;;;;;;;5.97;4.10;;;22.40;99.90;;;;;;5033485;28;20666;-69
2021/10/31 10:06:16;;;;;;;6.27;4.80;;;22.70;99.90;;;;;;5034230;28;20538;-69
2021/10/31 10:09:01;;;;;;;4.47;4.07;;;22.80;99.90;;;;;;5033134;28;20643;-68
2021/10/31 10:11:29;;;;;;;6.10;4.60;;;23.00;99.90;;;;;;5033509;28;20476;-68
2021/10/31 10:14:08;;;;;;;4.53;4.13;;;23.20;99.90;;;;;;5032957;28;21034;-69
2021/10/31 10:16:35;;;;;;;4.70;4.27;;;23.60;99.90;;;;;;5032756;28;20480;-68
2021/10/31 10:19:15;;;;;;;4.10;3.70;;;23.80;99.90;;;;;;5033341;28;20547;-68
2021/10/31 10:21:43;;;;;;;3.67;3.37;;;24.10;99.90;;;;;;5032810;28;20451;-69
2021/10/31 10:24:12;;;;;;;3.77;3.43;;;24.40;99.90;;;;;;5032807;28;20475;-69
2021/10/31 10:26:41;;;;;;;3.50;3.20;;;24.60;99.90;;;;;;5032601;28;20484;-69
2021/10/31 10:29:15;;;;;;;4.60;3.50;;;24.80;99.90;;;;;;5032660;28;20466;-68
2021/10/31 10:31:43;;;;;;;3.70;3.40;;;25.00;99.90;;;;;;5032801;28;20479;-69
2021/10/31 10:34:11;;;;;;;3.60;3.30;;;25.10;99.90;;;;;;5032668;28;20546;-69
2021/10/31 10:36:41;;;;;;;4.00;3.70;;;25.20;99.90;;;;;;5032380;28;20493;-69
2021/10/31 10:39:12;;;;;;;3.37;3.07;;;25.30;99.90;;;;;;5048599;28;20479;-69
2021/10/31 10:41:41;;;;;;;3.93;3.43;;;25.60;99.90;;;;;;5052452;28;20466;-68
2021/10/31 10:44:20;;;;;;;5.67;3.10;;;25.80;99.90;;;;;;5052487;28;20495;-68
2021/10/31 10:46:49;;;;;;;3.70;2.80;;;25.90;99.90;;;;;;5052222;28;20491;-68
2021/10/31 10:49:18;;;;;;;3.27;3.00;;;26.00;99.90;;;;;;5052104;28;20455;-69
2021/10/31 10:51:46;;;;;;;3.10;2.60;;;26.30;99.90;;;;;;5036975;28;20482;-69
2021/10/31 10:54:16;;;;;;;3.17;2.87;;;26.50;99.90;;;;;;5032956;28;20459;-69
2021/10/31 10:57:01;;;;;;;3.43;3.13;;;26.90;99.90;;;;;;5032825;28;20564;-69
2021/10/31 10:59:29;;;;;;;2.27;2.07;;;27.30;99.90;;;;;;5032929;28;20477;-69
2021/10/31 11:02:09;;;;;;;2.07;1.87;;;27.40;98.80;;;;;;5032790;28;20471;-69
2021/10/31 11:04:37;;;;;;;2.30;1.93;;;27.40;98.00;;;;;;5033155;28;20468;-69
2021/10/31 11:07:05;;;;;;;1.70;1.60;;;27.20;95.50;;;;;;5029286;28;20575;-69
2021/10/31 11:09:45;;;;;;;2.70;2.40;;;26.70;96.40;;;;;;5032308;28;20991;-69
2021/10/31 11:12:33;;;;;;;2.63;2.20;;;26.90;98.10;;;;;;5012043;28;20544;-69
2021/10/31 11:15:05;;;;;;;2.00;1.67;;;26.80;94.60;;;;;;5009945;28;20472;-69
2021/10/31 11:17:33;;;;;;;2.00;1.40;;;26.80;95.30;;;;;;5015956;28;20464;-67
2021/10/31 11:20:01;;;;;;;2.90;1.77;;;26.60;94.30;;;;;;5032473;28;20456;-67
2021/10/31 11:22:31;;;;;;;2.27;1.77;;;26.00;95.40;;;;;;5033246;28;20455;-66
2021/10/31 11:25:01;;;;;;;1.60;1.50;;;26.20;94.50;;;;;;5032014;28;20817;-66
2021/10/31 11:27:31;;;;;;;2.43;1.70;;;26.20;93.60;;;;;;5032971;28;20459;-67
2021/10/31 11:30:00;;;;;;;1.60;1.50;;;26.30;95.70;;;;;;5033050;28;20971;-67
2021/10/31 11:32:30;;;;;;;3.77;1.93;;;26.40;95.20;;;;;;5033267;28;20488;-67
2021/10/31 11:35:00;;;;;;;3.10;2.53;;;26.60;93.70;;;;;;5028618;28;21124;-67
2021/10/31 11:37:30;;;;;;;2.70;2.50;;;26.90;95.70;;;;;;5051535;28;20527;-67
2021/10/31 11:40:04;;;;;;;2.67;2.10;;;27.50;95.50;;;;;;5052772;28;20537;-67
2021/10/31 11:42:38;;;;;;;4.10;2.10;;;27.90;94.30;;;;;;5030917;28;20503;-67
2021/10/31 11:45:08;;;;;;;2.13;1.73;;;28.30;94.40;;;;;;5031809;28;20828;-67
2021/10/31 11:47:37;;;;;;;2.33;2.13;;;28.00;91.80;;;;;;5032112;28;20533;-67
2021/10/31 11:50:11;;;;;;;2.47;2.03;;;27.60;93.80;;;;;;5031888;28;20522;-67
2021/10/31 11:52:56;;;;;;;2.33;1.87;;;27.80;94.10;;;;;;5032603;28;20491;-67
2021/10/31 11:55:36;;;;;;;2.43;1.90;;;27.70;92.60;;;;;;5032034;28;21029;-67
2021/10/31 12:01:36;;;;;;;2.70;2.43;;;27.10;94.30;;;;;;5007904;28;20819;-67
2021/10/31 12:04:05;;;;;;;2.23;2.03;;;27.00;94.00;;;;;;5009202;28;21008;-67
2021/10/31 12:06:40;;;;;;;2.10;2.00;;;26.90;94.00;;;;;;5011000;28;20865;-67
2021/10/31 12:09:18;;;;;;;4.00;2.47;;;26.90;95.00;;;;;;5011411;28;20478;-67
2021/10/31 12:12:22;;;;;;;2.37;1.90;;;27.10;94.80;;;;;;5010102;28;20461;-67
2021/10/31 12:14:58;;;;;;;3.60;2.70;;;27.40;94.80;;;;;;5011281;28;20870;-67
2021/10/31 12:17:27;;;;;;;2.53;2.33;;;27.50;94.70;;;;;;5010934;28;20485;-67
2021/10/31 12:19:56;;;;;;;2.17;2.00;;;27.30;94.50;;;;;;5011371;28;20468;-67
2021/10/31 12:22:35;;;;;;;2.40;2.20;;;27.10;93.60;;;;;;5010953;28;20476;-67
2021/10/31 12:25:05;;;;;;;2.37;2.17;;;26.80;93.60;;;;;;5010263;28;20461;-67
2021/10/31 12:27:48;;;;;;;2.50;2.30;;;26.80;94.00;;;;;;5010374;28;20995;-67
2021/10/31 12:30:44;;;;;;;2.90;2.60;;;26.50;93.70;;;;;;5010766;28;20882;-67
2021/10/31 12:33:14;;;;;;;3.20;2.37;;;26.50;94.50;;;;;;5010651;28;20485;-68
2021/10/31 12:35:43;;;;;;;2.13;1.93;;;26.30;93.80;;;;;;5009947;28;20597;-68
2021/10/31 12:38:33;;;;;;;2.23;2.03;;;26.20;94.50;;;;;;5010404;28;20891;-68
2021/10/31 12:41:28;;;;;;;2.47;2.27;;;26.00;93.80;;;;;;5010280;28;20461;-68
2021/10/31 12:44:06;;;;;;;3.97;2.40;;;25.80;94.20;;;;;;5009726;28;20470;-68
2021/10/31 12:46:34;;;;;;;3.27;2.20;;;25.60;94.20;;;;;;5047261;28;20471;-68
2021/10/31 12:49:04;;;;;;;2.47;2.27;;;25.20;93.90;;;;;;5050288;28;20469;-67
2021/10/31 12:51:47;;;;;;;2.40;2.20;;;24.90;94.70;;;;;;5050464;28;20463;-67
2021/10/31 12:54:19;;;;;;;2.77;2.20;;;24.60;95.70;;;;;;5048836;28;20452;-68
2021/10/31 12:56:47;;;;;;;2.50;2.30;;;24.10;94.60;;;;;;5039142;28;20484;-67
2021/10/31 12:59:17;;;;;;;2.60;2.40;;;23.60;94.70;;;;;;5027706;28;20444;-67
2021/10/31 13:01:46;;;;;;;2.10;1.90;;;23.40;95.10;;;;;;5030514;28;20839;-67
2021/10/31 13:04:14;;;;;;;2.97;2.13;;;23.20;96.40;;;;;;5029637;28;20468;-67
2021/10/31 13:06:55;;;;;;;2.37;2.17;;;22.90;95.60;;;;;;5029864;28;20480;-67